Avisos AEMET Campiña SevillanaSin Avisos+ INFO
Sevilla, Andalucía, España
Linguagem: pt English Français Deutsch Italiano Português Español
 

Nearby METAR Reports

 

LEZL - Sevilla, Spain
Distance from station: ENE 8km
Actualizado: 06/02/2023 22:00
Céu limpo
Céu limpo
 Vento de SW
Vento: SW 13 km/h
Temperatura: 13°C
Ponto de Orvalho: 9°C
Humidade: 77%
Barómetro: 1019 hPa
Resumo: Céu limpo
Visibility: greater than 10 km
2023/02/06 21:00 LEZL 062100Z 22007KT CAVOK 13/09 Q1019 NOSIG
LEMO - Morón, Spain
Distance from station: SE 43km
Actualizado: 06/02/2023 22:30
Céu limpo
Céu limpo
 Vento de S
Vento: S 11 km/h
Temperatura: 9°C
Índice de frío: 7°C
Ponto de Orvalho: 6°C
Humidade: 82%
Barómetro: 1019 hPa
Resumo: Céu limpo
Visibility: greater than 10 km
2023/02/06 21:30 LEMO 062130Z 18006KT CAVOK 09/06 Q1019 NOSIG
LEJR - Jeréz, Spain
Distance from station: S 71km
Actualizado: 06/02/2023 22:30
Céu limpo
Céu limpo
 Vento de SSE
Vento: SSE 6 km/h
Temperatura: 11°C
Ponto de Orvalho: 9°C
Humidade: 88%
Barómetro: 1019 hPa
Resumo: Céu limpo
Visibility: greater than 10 km
2023/02/06 21:30 LEJR 062130Z 16003KT 140V200 CAVOK 11/09 Q1019
 
LERT - Rota, Spain
Distance from station: SSW 89km
Actualizado: 06/02/2023 22:30
Few Clouds
Few Clouds
 Vento de SE
Vento: SE 9 km/h
Temperatura: 12°C
Ponto de Orvalho: 11°C
Humidade: 94%
Barómetro: 1019 hPa
Clouds: Few Clouds
Visibility: 10 km
Cloud details: Few Clouds 366 m
2023/02/06 21:30 LERT 062130Z 14005KT 090V170 9999 FEW012 12/11 Q1019 NOSIG
LEMG - Málaga, Spain
Distance from station: ESE 157km
Actualizado: 06/02/2023 22:30
Muito nublado
Muito nublado
 Vento de SE
Vento: SE 13 km/h
Temperatura: 13°C
Ponto de Orvalho: 10°C
Humidade: 82%
Barómetro: 1021 hPa
Clouds: Muito nublado
Visibility: 10 km
Cloud details: Few Clouds 671 m
Muito nublado 1067 m
2023/02/06 21:30 LEMG 062130Z 14007KT 110V180 9999 FEW022 BKN035 13/10 Q1021 NOSIG
LEBA - Córdoba, Spain
Distance from station: ENE 115km
Actualizado: 06/02/2023 22:30
Céu limpo
Céu limpo
 Vento de ENE
Vento: ENE 7 km/h
Temperatura: 7°C
Índice de frío: 6°C
Ponto de Orvalho: 2°C
Humidade: 71%
Barómetro: 1019 hPa
Resumo: Céu limpo
Visibility: greater than 10 km
2023/02/06 21:30 LEBA 062130Z AUTO 07004KT CAVOK 07/02 Q1019
 
LEGR - Granada, Spain
Distance from station: E 198km
Actualizado: 06/02/2023 22:30
Few Clouds
Few Clouds
 Vento de calm
Vento: Calmo
Temperatura: 8°C
Ponto de Orvalho: 4°C
Humidade: 76%
Barómetro: 1020 hPa
Clouds: Few Clouds
Visibility: 10 km
Cloud details: Few Clouds 1280 m
2023/02/06 21:30 LEGR 062130Z 00000KT 9999 FEW042 08/04 Q1020
LEAM - Almería, Spain
Distance from station: E 326km
Actualizado: 06/02/2023 22:30
Muito nublado
Muito nublado
 Vento de NE
Vento: NE 20 km/h
Temperatura: 12°C
Ponto de Orvalho: 7°C
Humidade: 72%
Barómetro: 1022 hPa
Clouds: Muito nublado
Visibility: 10 km
Cloud details: Muito nublado 1067 m
Muito nublado 1524 m
2023/02/06 21:30 LEAM 062130Z 04011KT 9999 BKN035 BKN050 12/07 Q1022
LEMD - Madrid/Barajas, Spain
Distance from station: NNE 402km
Actualizado: 06/02/2023 22:30
Muito nublado
Muito nublado
 Vento de varies
Vento: varies 4 km/h
Temperatura: 6°C
Ponto de Orvalho: -1°C
Humidade: 61%
Barómetro: 1024 hPa
Clouds: Muito nublado
Visibility: 10 km
Cloud details: Few Clouds 1219 m
Muito nublado 2134 m
2023/02/06 21:30 LEMD 062130Z VRB02KT 9999 FEW040 BKN070 06/M01 Q1024 NOSIG
 
LEVD - Valladolid, Spain
Distance from station: N 492km
Actualizado: 06/02/2023 22:30
Céu limpo
Céu limpo
 Vento de E
Vento: E 24 km/h
Temperatura: 1°C
Índice de frío: -4°C
Ponto de Orvalho: -2°C
Humidade: 81%
Barómetro: 1024 hPa
Resumo: Céu limpo
Visibility: greater than 10 km
2023/02/06 21:30 LEVD 062130Z AUTO 08013KT CAVOK 01/M02 Q1024
LEBL - Barcelona, Spain
Distance from station: NE 816km
Actualizado: 06/02/2023 22:30
Few Clouds
Few Clouds
 Vento de NNE
Vento: NNE 26 km/h
Temperatura: 10°C
Índice de frío: 7°C
Ponto de Orvalho: -1°C
Humidade: 47%
Barómetro: 1026 hPa
Clouds: Few Clouds
Visibility: 10 km
Cloud details: Few Clouds 1067 m
2023/02/06 21:30 LEBL 062130Z 03014KT 9999 FEW035 10/M01 Q1026 NOSIG
LEVC - Valencia, Spain
Distance from station: ENE 535km
Actualizado: 06/02/2023 22:30
Chuva fraca, Parcialmente nublado
Chuva fraca, Parcialmente nublado
 Vento de NNE
Vento: NNE 13 km/h
Temperatura: 9°C
Índice de frío: 7°C
Ponto de Orvalho: 4°C
Humidade: 71%
Barómetro: 1026 hPa
Resumo: Chuva fraca
Clouds: Parcialmente nublado
Visibility: 10 km
Cloud details: Parcialmente nublado 1067 m
Parcialmente nublado 1372 m
2023/02/06 21:30 LEVC 062130Z 02007KT 330V060 9999 -RA SCT035 SCT045 09/04 Q1026 NOSIG